sensor_id;sensor_type;location;lat;lon;timestamp;temperature;humidity
22558;DHT22;11445;53.816;8.902;2023-02-24T00:00:05;5.30;99.90
22558;DHT22;11445;53.816;8.902;2023-02-24T00:02:57;5.40;99.90
22558;DHT22;11445;53.816;8.902;2023-02-24T00:05:25;5.40;99.90
22558;DHT22;11445;53.816;8.902;2023-02-24T00:07:52;5.30;99.90
22558;DHT22;11445;53.816;8.902;2023-02-24T00:10:19;5.30;99.90
22558;DHT22;11445;53.816;8.902;2023-02-24T00:12:47;5.20;99.90
22558;DHT22;11445;53.816;8.902;2023-02-24T00:15:14;5.20;99.90
22558;DHT22;11445;53.816;8.902;2023-02-24T00:17:42;5.20;99.90
22558;DHT22;11445;53.816;8.902;2023-02-24T00:20:10;5.20;99.90
22558;DHT22;11445;53.816;8.902;2023-02-24T00:22:39;5.20;99.90
22558;DHT22;11445;53.816;8.902;2023-02-24T00:25:07;5.20;99.90
22558;DHT22;11445;53.816;8.902;2023-02-24T00:27:37;5.20;99.90
22558;DHT22;11445;53.816;8.902;2023-02-24T00:30:05;5.20;99.90
22558;DHT22;11445;53.816;8.902;2023-02-24T00:32:32;5.20;99.90
22558;DHT22;11445;53.816;8.902;2023-02-24T00:35:01;5.20;99.90
22558;DHT22;11445;53.816;8.902;2023-02-24T00:37:28;5.20;99.90
22558;DHT22;11445;53.816;8.902;2023-02-24T00:39:56;5.10;99.90
22558;DHT22;11445;53.816;8.902;2023-02-24T00:42:23;5.10;99.90
22558;DHT22;11445;53.816;8.902;2023-02-24T00:44:50;5.10;99.90
22558;DHT22;11445;53.816;8.902;2023-02-24T00:47:19;5.10;99.90
22558;DHT22;11445;53.816;8.902;2023-02-24T00:49:47;5.10;99.90
22558;DHT22;11445;53.816;8.902;2023-02-24T00:52:16;5.10;99.90
22558;DHT22;11445;53.816;8.902;2023-02-24T00:54:44;5.10;99.90
22558;DHT22;11445;53.816;8.902;2023-02-24T00:57:13;5.10;99.90
22558;DHT22;11445;53.816;8.902;2023-02-24T00:59:42;5.10;99.90
22558;DHT22;11445;53.816;8.902;2023-02-24T01:02:12;5.10;99.90
22558;DHT22;11445;53.816;8.902;2023-02-24T01:04:39;5.00;99.90
22558;DHT22;11445;53.816;8.902;2023-02-24T01:07:09;5.00;99.90
22558;DHT22;11445;53.816;8.902;2023-02-24T01:09:39;5.00;99.90
22558;DHT22;11445;53.816;8.902;2023-02-24T01:12:07;5.00;99.90
22558;DHT22;11445;53.816;8.902;2023-02-24T01:14:53;5.00;99.90
22558;DHT22;11445;53.816;8.902;2023-02-24T01:17:20;4.90;99.90
22558;DHT22;11445;53.816;8.902;2023-02-24T01:19:48;5.00;99.90
22558;DHT22;11445;53.816;8.902;2023-02-24T01:22:17;4.90;99.90
22558;DHT22;11445;53.816;8.902;2023-02-24T01:24:44;4.80;99.90
22558;DHT22;11445;53.816;8.902;2023-02-24T01:27:12;4.90;99.90
22558;DHT22;11445;53.816;8.902;2023-02-24T01:29:41;4.90;99.90
22558;DHT22;11445;53.816;8.902;2023-02-24T01:32:12;4.90;99.90
22558;DHT22;11445;53.816;8.902;2023-02-24T01:34:41;4.90;99.90
22558;DHT22;11445;53.816;8.902;2023-02-24T01:37:08;4.90;99.90
22558;DHT22;11445;53.816;8.902;2023-02-24T01:39:35;4.90;99.90
22558;DHT22;11445;53.816;8.902;2023-02-24T01:42:04;4.80;99.90
22558;DHT22;11445;53.816;8.902;2023-02-24T01:45:04;4.80;99.90
22558;DHT22;11445;53.816;8.902;2023-02-24T01:47:39;4.80;99.90
22558;DHT22;11445;53.816;8.902;2023-02-24T01:50:08;4.70;99.90
22558;DHT22;11445;53.816;8.902;2023-02-24T01:52:42;4.70;99.90
22558;DHT22;11445;53.816;8.902;2023-02-24T01:55:13;4.80;99.90
22558;DHT22;11445;53.816;8.902;2023-02-24T01:57:45;4.90;99.90
22558;DHT22;11445;53.816;8.902;2023-02-24T02:00:15;4.90;99.90
22558;DHT22;11445;53.816;8.902;2023-02-24T02:03:06;4.90;99.90
22558;DHT22;11445;53.816;8.902;2023-02-24T02:05:37;4.90;99.90
22558;DHT22;11445;53.816;8.902;2023-02-24T02:08:05;5.00;99.90
22558;DHT22;11445;53.816;8.902;2023-02-24T02:10:33;4.90;99.90
22558;DHT22;11445;53.816;8.902;2023-02-24T02:13:03;4.90;99.90
22558;DHT22;11445;53.816;8.902;2023-02-24T02:15:31;5.00;99.90
22558;DHT22;11445;53.816;8.902;2023-02-24T02:18:05;5.00;99.90
22558;DHT22;11445;53.816;8.902;2023-02-24T02:26:54;5.00;99.90
22558;DHT22;11445;53.816;8.902;2023-02-24T02:32:40;5.00;99.90
22558;DHT22;11445;53.816;8.902;2023-02-24T02:35:21;4.90;99.90
22558;DHT22;11445;53.816;8.902;2023-02-24T02:37:51;4.90;99.90
22558;DHT22;11445;53.816;8.902;2023-02-24T02:40:25;4.90;99.90
22558;DHT22;11445;53.816;8.902;2023-02-24T02:42:57;4.90;99.90
22558;DHT22;11445;53.816;8.902;2023-02-24T02:45:30;4.90;99.90
22558;DHT22;11445;53.816;8.902;2023-02-24T02:48:02;5.00;99.90
22558;DHT22;11445;53.816;8.902;2023-02-24T02:50:37;5.00;99.90
22558;DHT22;11445;53.816;8.902;2023-02-24T02:53:11;4.90;99.90
22558;DHT22;11445;53.816;8.902;2023-02-24T02:55:44;5.00;99.90
22558;DHT22;11445;53.816;8.902;2023-02-24T02:58:15;4.90;99.90
22558;DHT22;11445;53.816;8.902;2023-02-24T03:00:48;4.90;99.90
22558;DHT22;11445;53.816;8.902;2023-02-24T03:03:24;4.90;99.90
22558;DHT22;11445;53.816;8.902;2023-02-24T03:05:58;4.90;99.90
22558;DHT22;11445;53.816;8.902;2023-02-24T03:08:29;4.90;99.90
22558;DHT22;11445;53.816;8.902;2023-02-24T03:11:03;4.90;99.90
22558;DHT22;11445;53.816;8.902;2023-02-24T03:13:36;4.90;99.90
22558;DHT22;11445;53.816;8.902;2023-02-24T03:16:04;4.90;99.90
22558;DHT22;11445;53.816;8.902;2023-02-24T03:18:34;5.00;99.90
22558;DHT22;11445;53.816;8.902;2023-02-24T03:21:07;4.90;99.90
22558;DHT22;11445;53.816;8.902;2023-02-24T03:23:39;4.90;99.90
22558;DHT22;11445;53.816;8.902;2023-02-24T03:26:12;4.90;99.90
22558;DHT22;11445;53.816;8.902;2023-02-24T03:28:53;4.80;99.90
22558;DHT22;11445;53.816;8.902;2023-02-24T03:31:27;4.80;99.90
22558;DHT22;11445;53.816;8.902;2023-02-24T03:33:59;4.80;99.90
22558;DHT22;11445;53.816;8.902;2023-02-24T03:36:30;4.80;99.90
22558;DHT22;11445;53.816;8.902;2023-02-24T03:38:58;4.80;99.90
22558;DHT22;11445;53.816;8.902;2023-02-24T03:41:28;4.80;99.90
22558;DHT22;11445;53.816;8.902;2023-02-24T03:43:58;4.80;99.90
22558;DHT22;11445;53.816;8.902;2023-02-24T03:46:26;4.80;99.90
22558;DHT22;11445;53.816;8.902;2023-02-24T03:48:58;4.70;99.90
22558;DHT22;11445;53.816;8.902;2023-02-24T03:51:30;4.70;99.90
22558;DHT22;11445;53.816;8.902;2023-02-24T03:54:09;4.70;99.90
22558;DHT22;11445;53.816;8.902;2023-02-24T03:56:46;4.60;99.90
22558;DHT22;11445;53.816;8.902;2023-02-24T03:59:29;4.60;99.90
22558;DHT22;11445;53.816;8.902;2023-02-24T04:02:04;4.60;99.90
22558;DHT22;11445;53.816;8.902;2023-02-24T04:04:37;4.60;99.90
22558;DHT22;11445;53.816;8.902;2023-02-24T04:07:11;4.60;99.90
22558;DHT22;11445;53.816;8.902;2023-02-24T04:09:43;4.60;99.90
22558;DHT22;11445;53.816;8.902;2023-02-24T04:12:17;4.60;99.90
22558;DHT22;11445;53.816;8.902;2023-02-24T04:14:49;4.50;99.90
22558;DHT22;11445;53.816;8.902;2023-02-24T04:17:21;4.50;99.90
22558;DHT22;11445;53.816;8.902;2023-02-24T04:19:55;4.50;99.90
22558;DHT22;11445;53.816;8.902;2023-02-24T04:22:25;4.50;99.90
22558;DHT22;11445;53.816;8.902;2023-02-24T04:24:57;4.50;99.90
22558;DHT22;11445;53.816;8.902;2023-02-24T04:27:26;4.50;99.90
22558;DHT22;11445;53.816;8.902;2023-02-24T04:29:55;4.40;99.90
22558;DHT22;11445;53.816;8.902;2023-02-24T04:32:27;4.40;99.90
22558;DHT22;11445;53.816;8.902;2023-02-24T04:35:01;4.40;99.90
22558;DHT22;11445;53.816;8.902;2023-02-24T04:37:29;4.40;99.90
22558;DHT22;11445;53.816;8.902;2023-02-24T04:39:58;4.40;99.90
22558;DHT22;11445;53.816;8.902;2023-02-24T04:42:26;4.50;99.90
22558;DHT22;11445;53.816;8.902;2023-02-24T04:44:53;4.40;99.90
22558;DHT22;11445;53.816;8.902;2023-02-24T04:47:23;4.50;99.90
22558;DHT22;11445;53.816;8.902;2023-02-24T04:49:53;4.50;99.90
22558;DHT22;11445;53.816;8.902;2023-02-24T04:52:21;4.50;99.90
22558;DHT22;11445;53.816;8.902;2023-02-24T04:54:50;4.50;99.90
22558;DHT22;11445;53.816;8.902;2023-02-24T04:57:17;4.40;99.90
22558;DHT22;11445;53.816;8.902;2023-02-24T04:59:44;4.50;99.90
22558;DHT22;11445;53.816;8.902;2023-02-24T05:02:11;4.40;99.90
22558;DHT22;11445;53.816;8.902;2023-02-24T05:04:40;4.40;99.90
22558;DHT22;11445;53.816;8.902;2023-02-24T05:07:07;4.30;99.90
22558;DHT22;11445;53.816;8.902;2023-02-24T05:09:37;4.30;99.90
22558;DHT22;11445;53.816;8.902;2023-02-24T05:12:07;4.30;99.90
22558;DHT22;11445;53.816;8.902;2023-02-24T05:14:35;4.40;99.90
22558;DHT22;11445;53.816;8.902;2023-02-24T05:17:04;4.40;99.90
22558;DHT22;11445;53.816;8.902;2023-02-24T05:19:31;4.40;99.90
22558;DHT22;11445;53.816;8.902;2023-02-24T05:22:15;4.40;99.90
22558;DHT22;11445;53.816;8.902;2023-02-24T05:24:42;4.40;99.90
22558;DHT22;11445;53.816;8.902;2023-02-24T05:27:13;4.40;99.90
22558;DHT22;11445;53.816;8.902;2023-02-24T05:29:42;4.40;99.90
22558;DHT22;11445;53.816;8.902;2023-02-24T05:32:09;4.40;99.90
22558;DHT22;11445;53.816;8.902;2023-02-24T05:34:36;4.40;99.90
22558;DHT22;11445;53.816;8.902;2023-02-24T05:37:04;4.40;99.90
22558;DHT22;11445;53.816;8.902;2023-02-24T05:39:35;4.40;99.90
22558;DHT22;11445;53.816;8.902;2023-02-24T05:42:02;4.40;99.90
22558;DHT22;11445;53.816;8.902;2023-02-24T05:44:33;4.40;99.90
22558;DHT22;11445;53.816;8.902;2023-02-24T05:47:01;4.40;99.90
22558;DHT22;11445;53.816;8.902;2023-02-24T05:49:31;4.40;99.90
22558;DHT22;11445;53.816;8.902;2023-02-24T05:52:00;4.30;99.90
22558;DHT22;11445;53.816;8.902;2023-02-24T05:54:33;4.40;99.90
22558;DHT22;11445;53.816;8.902;2023-02-24T05:57:02;4.30;99.90
22558;DHT22;11445;53.816;8.902;2023-02-24T05:59:32;4.30;99.90
22558;DHT22;11445;53.816;8.902;2023-02-24T06:02:00;4.30;99.90
22558;DHT22;11445;53.816;8.902;2023-02-24T06:04:31;4.30;99.90
22558;DHT22;11445;53.816;8.902;2023-02-24T06:07:07;4.40;99.90
22558;DHT22;11445;53.816;8.902;2023-02-24T06:09:38;4.40;99.90
22558;DHT22;11445;53.816;8.902;2023-02-24T06:12:09;4.40;99.90
22558;DHT22;11445;53.816;8.902;2023-02-24T06:14:40;4.40;99.90
22558;DHT22;11445;53.816;8.902;2023-02-24T06:17:07;4.30;99.90
22558;DHT22;11445;53.816;8.902;2023-02-24T06:19:35;4.30;99.90
22558;DHT22;11445;53.816;8.902;2023-02-24T06:22:02;4.30;99.90
22558;DHT22;11445;53.816;8.902;2023-02-24T06:24:32;4.30;99.90
22558;DHT22;11445;53.816;8.902;2023-02-24T06:26:59;4.30;99.90
22558;DHT22;11445;53.816;8.902;2023-02-24T06:29:35;4.20;99.90
22558;DHT22;11445;53.816;8.902;2023-02-24T06:32:04;4.20;99.90
22558;DHT22;11445;53.816;8.902;2023-02-24T06:34:33;4.30;99.90
22558;DHT22;11445;53.816;8.902;2023-02-24T06:37:00;4.30;99.90
22558;DHT22;11445;53.816;8.902;2023-02-24T06:39:28;4.30;99.90
22558;DHT22;11445;53.816;8.902;2023-02-24T06:41:57;4.30;99.90
22558;DHT22;11445;53.816;8.902;2023-02-24T06:44:28;4.30;99.90
22558;DHT22;11445;53.816;8.902;2023-02-24T06:46:55;4.50;99.90
22558;DHT22;11445;53.816;8.902;2023-02-24T06:49:24;4.60;99.90
22558;DHT22;11445;53.816;8.902;2023-02-24T06:51:52;4.50;99.90
22558;DHT22;11445;53.816;8.902;2023-02-24T06:54:20;4.40;99.90
22558;DHT22;11445;53.816;8.902;2023-02-24T06:56:48;4.40;99.90
22558;DHT22;11445;53.816;8.902;2023-02-24T06:59:17;4.30;99.90
22558;DHT22;11445;53.816;8.902;2023-02-24T07:01:46;4.30;99.90
22558;DHT22;11445;53.816;8.902;2023-02-24T07:04:15;4.30;99.90
22558;DHT22;11445;53.816;8.902;2023-02-24T07:06:49;4.30;99.90
22558;DHT22;11445;53.816;8.902;2023-02-24T07:09:19;4.30;99.90
22558;DHT22;11445;53.816;8.902;2023-02-24T07:11:48;4.30;99.90
22558;DHT22;11445;53.816;8.902;2023-02-24T07:14:18;4.20;99.90
22558;DHT22;11445;53.816;8.902;2023-02-24T07:16:47;4.20;99.90
22558;DHT22;11445;53.816;8.902;2023-02-24T07:19:19;4.20;99.90
22558;DHT22;11445;53.816;8.902;2023-02-24T07:21:49;4.20;99.90
22558;DHT22;11445;53.816;8.902;2023-02-24T07:24:19;4.20;99.90
22558;DHT22;11445;53.816;8.902;2023-02-24T07:26:54;4.30;99.90
22558;DHT22;11445;53.816;8.902;2023-02-24T07:29:22;4.30;99.90
22558;DHT22;11445;53.816;8.902;2023-02-24T07:31:49;4.20;99.90
22558;DHT22;11445;53.816;8.902;2023-02-24T07:34:21;4.20;99.90
22558;DHT22;11445;53.816;8.902;2023-02-24T07:36:51;4.20;99.90
22558;DHT22;11445;53.816;8.902;2023-02-24T07:39:20;4.20;99.90
22558;DHT22;11445;53.816;8.902;2023-02-24T07:41:48;4.20;99.90
22558;DHT22;11445;53.816;8.902;2023-02-24T07:44:17;4.10;99.90
22558;DHT22;11445;53.816;8.902;2023-02-24T07:46:44;4.10;99.90
22558;DHT22;11445;53.816;8.902;2023-02-24T07:49:15;4.20;99.90
22558;DHT22;11445;53.816;8.902;2023-02-24T07:51:45;4.10;99.90
22558;DHT22;11445;53.816;8.902;2023-02-24T07:54:18;4.10;99.90
22558;DHT22;11445;53.816;8.902;2023-02-24T07:56:46;4.20;99.90
22558;DHT22;11445;53.816;8.902;2023-02-24T07:59:21;4.20;99.90
22558;DHT22;11445;53.816;8.902;2023-02-24T08:01:49;4.30;99.90
22558;DHT22;11445;53.816;8.902;2023-02-24T08:04:18;4.30;99.90
22558;DHT22;11445;53.816;8.902;2023-02-24T08:06:48;4.30;99.90
22558;DHT22;11445;53.816;8.902;2023-02-24T08:09:23;4.30;99.90
22558;DHT22;11445;53.816;8.902;2023-02-24T08:12:05;4.20;99.90
22558;DHT22;11445;53.816;8.902;2023-02-24T08:14:33;4.20;99.90
22558;DHT22;11445;53.816;8.902;2023-02-24T08:17:10;4.20;99.90
22558;DHT22;11445;53.816;8.902;2023-02-24T08:19:41;4.20;99.90
22558;DHT22;11445;53.816;8.902;2023-02-24T08:22:10;4.20;99.90
22558;DHT22;11445;53.816;8.902;2023-02-24T08:24:47;4.20;99.90
22558;DHT22;11445;53.816;8.902;2023-02-24T08:27:18;4.20;99.90
22558;DHT22;11445;53.816;8.902;2023-02-24T08:29:47;4.20;99.90
22558;DHT22;11445;53.816;8.902;2023-02-24T08:32:25;4.20;99.90
22558;DHT22;11445;53.816;8.902;2023-02-24T08:34:58;4.20;99.90
22558;DHT22;11445;53.816;8.902;2023-02-24T08:37:28;4.20;99.90
22558;DHT22;11445;53.816;8.902;2023-02-24T08:40:07;4.20;99.90
22558;DHT22;11445;53.816;8.902;2023-02-24T08:42:54;4.20;99.90
22558;DHT22;11445;53.816;8.902;2023-02-24T08:45:23;4.30;99.90
22558;DHT22;11445;53.816;8.902;2023-02-24T08:47:51;4.30;99.90
22558;DHT22;11445;53.816;8.902;2023-02-24T08:50:25;4.30;99.90
22558;DHT22;11445;53.816;8.902;2023-02-24T08:52:55;4.30;99.90
22558;DHT22;11445;53.816;8.902;2023-02-24T08:55:24;4.30;99.90
22558;DHT22;11445;53.816;8.902;2023-02-24T08:57:57;4.40;99.90
22558;DHT22;11445;53.816;8.902;2023-02-24T09:00:26;4.40;99.90
22558;DHT22;11445;53.816;8.902;2023-02-24T09:03:14;4.50;99.90
22558;DHT22;11445;53.816;8.902;2023-02-24T09:05:56;4.50;99.90
22558;DHT22;11445;53.816;8.902;2023-02-24T09:08:23;4.50;99.90
22558;DHT22;11445;53.816;8.902;2023-02-24T09:10:59;4.60;99.90
22558;DHT22;11445;53.816;8.902;2023-02-24T09:13:26;4.60;99.90
22558;DHT22;11445;53.816;8.902;2023-02-24T09:15:59;4.60;99.90
22558;DHT22;11445;53.816;8.902;2023-02-24T09:18:27;4.60;99.90
22558;DHT22;11445;53.816;8.902;2023-02-24T09:21:08;4.60;99.90
22558;DHT22;11445;53.816;8.902;2023-02-24T09:23:52;4.60;99.90
22558;DHT22;11445;53.816;8.902;2023-02-24T09:26:22;4.70;99.90
22558;DHT22;11445;53.816;8.902;2023-02-24T09:28:49;4.60;99.90
22558;DHT22;11445;53.816;8.902;2023-02-24T09:31:20;4.60;99.90
22558;DHT22;11445;53.816;8.902;2023-02-24T09:33:49;4.70;99.90
22558;DHT22;11445;53.816;8.902;2023-02-24T09:36:18;4.70;99.90
22558;DHT22;11445;53.816;8.902;2023-02-24T09:38:54;4.70;99.90
22558;DHT22;11445;53.816;8.902;2023-02-24T09:41:41;4.90;99.90
22558;DHT22;11445;53.816;8.902;2023-02-24T09:44:32;5.00;99.90
22558;DHT22;11445;53.816;8.902;2023-02-24T09:47:09;5.00;99.90
22558;DHT22;11445;53.816;8.902;2023-02-24T09:49:46;5.10;99.90
22558;DHT22;11445;53.816;8.902;2023-02-24T09:52:16;5.20;99.90
22558;DHT22;11445;53.816;8.902;2023-02-24T09:54:45;5.30;99.90
22558;DHT22;11445;53.816;8.902;2023-02-24T09:57:28;5.40;99.90
22558;DHT22;11445;53.816;8.902;2023-02-24T10:00:05;5.40;99.90
22558;DHT22;11445;53.816;8.902;2023-02-24T10:02:53;5.80;99.90
22558;DHT22;11445;53.816;8.902;2023-02-24T10:05:27;5.90;99.90
22558;DHT22;11445;53.816;8.902;2023-02-24T10:08:03;5.80;99.90
22558;DHT22;11445;53.816;8.902;2023-02-24T10:10:35;5.80;99.90
22558;DHT22;11445;53.816;8.902;2023-02-24T10:13:12;5.80;99.90
22558;DHT22;11445;53.816;8.902;2023-02-24T10:15:43;5.80;99.90
22558;DHT22;11445;53.816;8.902;2023-02-24T10:18:29;5.80;99.90
22558;DHT22;11445;53.816;8.902;2023-02-24T10:21:04;5.90;99.90
22558;DHT22;11445;53.816;8.902;2023-02-24T10:23:40;6.10;99.90
22558;DHT22;11445;53.816;8.902;2023-02-24T10:26:15;6.20;99.90
22558;DHT22;11445;53.816;8.902;2023-02-24T10:29:02;6.30;99.90
22558;DHT22;11445;53.816;8.902;2023-02-24T10:31:38;6.30;99.90
22558;DHT22;11445;53.816;8.902;2023-02-24T10:34:12;6.40;99.90
22558;DHT22;11445;53.816;8.902;2023-02-24T10:36:45;6.40;99.90
22558;DHT22;11445;53.816;8.902;2023-02-24T10:39:16;6.40;99.90
22558;DHT22;11445;53.816;8.902;2023-02-24T10:41:46;6.50;99.90
22558;DHT22;11445;53.816;8.902;2023-02-24T10:44:21;6.50;99.90
22558;DHT22;11445;53.816;8.902;2023-02-24T10:46:58;6.60;99.90
22558;DHT22;11445;53.816;8.902;2023-02-24T10:49:39;6.70;99.90
22558;DHT22;11445;53.816;8.902;2023-02-24T10:52:12;6.70;99.90
22558;DHT22;11445;53.816;8.902;2023-02-24T10:54:58;6.70;99.90
22558;DHT22;11445;53.816;8.902;2023-02-24T10:57:40;6.80;99.90
22558;DHT22;11445;53.816;8.902;2023-02-24T11:00:18;7.00;99.90
22558;DHT22;11445;53.816;8.902;2023-02-24T11:03:17;7.10;99.90
22558;DHT22;11445;53.816;8.902;2023-02-24T11:06:00;7.10;99.90
22558;DHT22;11445;53.816;8.902;2023-02-24T11:08:44;7.10;99.90
22558;DHT22;11445;53.816;8.902;2023-02-24T11:11:33;7.10;99.90
22558;DHT22;11445;53.816;8.902;2023-02-24T11:14:22;7.10;99.90
22558;DHT22;11445;53.816;8.902;2023-02-24T11:17:18;7.10;99.90
22558;DHT22;11445;53.816;8.902;2023-02-24T11:19:56;7.20;99.90
22558;DHT22;11445;53.816;8.902;2023-02-24T11:22:27;7.20;99.90
22558;DHT22;11445;53.816;8.902;2023-02-24T11:25:02;7.20;99.90
22558;DHT22;11445;53.816;8.902;2023-02-24T11:27:30;7.20;99.90
22558;DHT22;11445;53.816;8.902;2023-02-24T11:30:10;7.30;99.90
22558;DHT22;11445;53.816;8.902;2023-02-24T11:33:03;7.30;99.90
22558;DHT22;11445;53.816;8.902;2023-02-24T11:35:38;7.30;99.90
22558;DHT22;11445;53.816;8.902;2023-02-24T11:38:16;7.30;99.90
22558;DHT22;11445;53.816;8.902;2023-02-24T11:40:58;7.30;99.90
22558;DHT22;11445;53.816;8.902;2023-02-24T11:43:28;7.30;99.90
22558;DHT22;11445;53.816;8.902;2023-02-24T11:46:00;7.30;99.90
22558;DHT22;11445;53.816;8.902;2023-02-24T11:48:34;7.40;99.90
22558;DHT22;11445;53.816;8.902;2023-02-24T11:51:06;7.50;99.90
22558;DHT22;11445;53.816;8.902;2023-02-24T11:53:40;7.50;99.90
22558;DHT22;11445;53.816;8.902;2023-02-24T11:56:15;7.60;99.90
22558;DHT22;11445;53.816;8.902;2023-02-24T11:58:50;7.60;99.90
22558;DHT22;11445;53.816;8.902;2023-02-24T12:01:23;7.60;99.90
22558;DHT22;11445;53.816;8.902;2023-02-24T12:03:58;7.60;99.90
22558;DHT22;11445;53.816;8.902;2023-02-24T12:06:31;7.70;99.90
22558;DHT22;11445;53.816;8.902;2023-02-24T12:09:05;7.70;99.90
22558;DHT22;11445;53.816;8.902;2023-02-24T12:11:39;7.70;99.90
22558;DHT22;11445;53.816;8.902;2023-02-24T12:14:17;7.70;99.90
22558;DHT22;11445;53.816;8.902;2023-02-24T12:16:52;7.70;99.90
22558;DHT22;11445;53.816;8.902;2023-02-24T12:19:32;7.70;99.90
22558;DHT22;11445;53.816;8.902;2023-02-24T12:22:06;7.70;99.90
22558;DHT22;11445;53.816;8.902;2023-02-24T12:24:38;7.60;99.90
22558;DHT22;11445;53.816;8.902;2023-02-24T12:27:16;7.60;99.90
22558;DHT22;11445;53.816;8.902;2023-02-24T12:29:59;7.50;99.90
22558;DHT22;11445;53.816;8.902;2023-02-24T12:32:45;7.20;99.90
22558;DHT22;11445;53.816;8.902;2023-02-24T12:35:21;6.90;99.90
22558;DHT22;11445;53.816;8.902;2023-02-24T12:37:59;6.80;99.90
22558;DHT22;11445;53.816;8.902;2023-02-24T12:40:38;6.70;99.90
22558;DHT22;11445;53.816;8.902;2023-02-24T12:43:19;6.60;99.90
22558;DHT22;11445;53.816;8.902;2023-02-24T12:45:54;6.50;99.90
22558;DHT22;11445;53.816;8.902;2023-02-24T12:48:36;6.50;99.90
22558;DHT22;11445;53.816;8.902;2023-02-24T12:51:15;6.50;99.90
22558;DHT22;11445;53.816;8.902;2023-02-24T12:53:45;6.50;99.90
22558;DHT22;11445;53.816;8.902;2023-02-24T12:56:18;6.60;99.90
22558;DHT22;11445;53.816;8.902;2023-02-24T12:58:50;6.70;99.90
22558;DHT22;11445;53.816;8.902;2023-02-24T13:01:22;6.70;99.90
22558;DHT22;11445;53.816;8.902;2023-02-24T13:04:03;6.80;99.90
22558;DHT22;11445;53.816;8.902;2023-02-24T13:06:51;6.80;99.90
22558;DHT22;11445;53.816;8.902;2023-02-24T13:09:25;6.90;99.90
22558;DHT22;11445;53.816;8.902;2023-02-24T13:11:56;6.90;99.90
22558;DHT22;11445;53.816;8.902;2023-02-24T13:14:27;7.10;99.90
22558;DHT22;11445;53.816;8.902;2023-02-24T13:17:04;7.10;99.90
22558;DHT22;11445;53.816;8.902;2023-02-24T13:19:32;7.20;99.90
22558;DHT22;11445;53.816;8.902;2023-02-24T13:22:05;7.30;99.90
22558;DHT22;11445;53.816;8.902;2023-02-24T13:24:34;7.40;99.90
22558;DHT22;11445;53.816;8.902;2023-02-24T13:27:20;7.50;99.90
22558;DHT22;11445;53.816;8.902;2023-02-24T13:29:50;7.50;99.90
22558;DHT22;11445;53.816;8.902;2023-02-24T13:32:25;7.50;99.90
22558;DHT22;11445;53.816;8.902;2023-02-24T13:34:54;7.50;99.90
22558;DHT22;11445;53.816;8.902;2023-02-24T13:37:32;7.50;99.90
22558;DHT22;11445;53.816;8.902;2023-02-24T13:40:11;7.50;99.90
22558;DHT22;11445;53.816;8.902;2023-02-24T13:42:41;7.60;99.90
22558;DHT22;11445;53.816;8.902;2023-02-24T13:45:18;7.50;99.90
22558;DHT22;11445;53.816;8.902;2023-02-24T13:48:15;7.50;99.90
22558;DHT22;11445;53.816;8.902;2023-02-24T13:50:59;7.50;99.90
22558;DHT22;11445;53.816;8.902;2023-02-24T13:53:39;7.30;99.90
22558;DHT22;11445;53.816;8.902;2023-02-24T13:56:23;7.20;99.90
22558;DHT22;11445;53.816;8.902;2023-02-24T14:01:46;7.10;99.90
22558;DHT22;11445;53.816;8.902;2023-02-24T14:04:15;7.00;99.90
22558;DHT22;11445;53.816;8.902;2023-02-24T14:06:46;7.00;99.90
22558;DHT22;11445;53.816;8.902;2023-02-24T14:09:17;7.00;99.90
22558;DHT22;11445;53.816;8.902;2023-02-24T14:11:50;7.00;99.90
22558;DHT22;11445;53.816;8.902;2023-02-24T14:14:18;7.00;99.90
22558;DHT22;11445;53.816;8.902;2023-02-24T14:16:49;7.00;99.90
22558;DHT22;11445;53.816;8.902;2023-02-24T14:19:17;7.00;99.90
22558;DHT22;11445;53.816;8.902;2023-02-24T14:21:49;6.80;99.90
22558;DHT22;11445;53.816;8.902;2023-02-24T14:24:18;6.70;99.90
22558;DHT22;11445;53.816;8.902;2023-02-24T14:26:48;6.70;99.90
22558;DHT22;11445;53.816;8.902;2023-02-24T14:29:17;6.70;99.90
22558;DHT22;11445;53.816;8.902;2023-02-24T14:31:51;6.60;99.90
22558;DHT22;11445;53.816;8.902;2023-02-24T14:34:21;6.60;99.90
22558;DHT22;11445;53.816;8.902;2023-02-24T14:36:52;6.50;99.90
22558;DHT22;11445;53.816;8.902;2023-02-24T14:39:22;6.50;99.90
22558;DHT22;11445;53.816;8.902;2023-02-24T14:41:51;6.60;99.90
22558;DHT22;11445;53.816;8.902;2023-02-24T14:44:29;6.60;99.90
22558;DHT22;11445;53.816;8.902;2023-02-24T14:46:58;6.60;99.90
22558;DHT22;11445;53.816;8.902;2023-02-24T14:49:27;6.70;99.90
22558;DHT22;11445;53.816;8.902;2023-02-24T14:51:59;6.70;99.90
22558;DHT22;11445;53.816;8.902;2023-02-24T14:54:38;6.80;99.90
22558;DHT22;11445;53.816;8.902;2023-02-24T14:57:10;6.70;99.90
22558;DHT22;11445;53.816;8.902;2023-02-24T14:59:39;6.80;99.90
22558;DHT22;11445;53.816;8.902;2023-02-24T15:02:13;6.80;99.90
22558;DHT22;11445;53.816;8.902;2023-02-24T15:04:43;6.80;99.90
22558;DHT22;11445;53.816;8.902;2023-02-24T15:07:16;6.70;99.90
22558;DHT22;11445;53.816;8.902;2023-02-24T15:09:47;6.70;99.90
22558;DHT22;11445;53.816;8.902;2023-02-24T15:12:20;6.70;99.90
22558;DHT22;11445;53.816;8.902;2023-02-24T15:14:50;6.70;99.90
22558;DHT22;11445;53.816;8.902;2023-02-24T15:17:20;6.70;99.90
22558;DHT22;11445;53.816;8.902;2023-02-24T15:19:48;6.60;99.90
22558;DHT22;11445;53.816;8.902;2023-02-24T15:22:22;6.60;99.90
22558;DHT22;11445;53.816;8.902;2023-02-24T15:24:52;6.60;99.90
22558;DHT22;11445;53.816;8.902;2023-02-24T15:27:24;6.50;99.90
22558;DHT22;11445;53.816;8.902;2023-02-24T15:30:00;6.50;99.90
22558;DHT22;11445;53.816;8.902;2023-02-24T15:32:31;6.50;99.90
22558;DHT22;11445;53.816;8.902;2023-02-24T15:34:58;6.50;99.90
22558;DHT22;11445;53.816;8.902;2023-02-24T15:37:27;6.40;99.90
22558;DHT22;11445;53.816;8.902;2023-02-24T15:40:03;6.40;99.90
22558;DHT22;11445;53.816;8.902;2023-02-24T15:42:32;6.30;99.90
22558;DHT22;11445;53.816;8.902;2023-02-24T15:45:00;6.30;99.90
22558;DHT22;11445;53.816;8.902;2023-02-24T15:47:29;6.20;99.90
22558;DHT22;11445;53.816;8.902;2023-02-24T15:49:57;6.20;99.90
22558;DHT22;11445;53.816;8.902;2023-02-24T15:52:26;6.20;99.90
22558;DHT22;11445;53.816;8.902;2023-02-24T15:54:55;6.30;99.90
22558;DHT22;11445;53.816;8.902;2023-02-24T15:57:25;6.30;99.90
22558;DHT22;11445;53.816;8.902;2023-02-24T15:59:54;6.30;99.90
22558;DHT22;11445;53.816;8.902;2023-02-24T16:02:22;6.30;99.90
22558;DHT22;11445;53.816;8.902;2023-02-24T16:04:50;6.30;99.90
22558;DHT22;11445;53.816;8.902;2023-02-24T16:07:20;6.30;99.90
22558;DHT22;11445;53.816;8.902;2023-02-24T16:09:49;6.20;99.90
22558;DHT22;11445;53.816;8.902;2023-02-24T16:12:20;6.20;99.90
22558;DHT22;11445;53.816;8.902;2023-02-24T16:14:49;6.20;99.90
22558;DHT22;11445;53.816;8.902;2023-02-24T16:17:30;6.20;99.90
22558;DHT22;11445;53.816;8.902;2023-02-24T16:19:57;6.20;99.90
22558;DHT22;11445;53.816;8.902;2023-02-24T16:22:24;6.10;99.90
22558;DHT22;11445;53.816;8.902;2023-02-24T16:24:51;6.10;99.90
22558;DHT22;11445;53.816;8.902;2023-02-24T16:27:21;6.20;99.90
22558;DHT22;11445;53.816;8.902;2023-02-24T16:29:52;6.10;99.90